createdAt,value
2019-03-06T00:01:06.714Z,11.37
2019-03-06T00:03:38.422Z,14.70
2019-03-06T00:06:16.777Z,14.67
2019-03-06T00:08:44.976Z,12.53
2019-03-06T00:11:16.814Z,13.87
2019-03-06T00:13:48.871Z,15.30
2019-03-06T00:16:20.937Z,15.57
2019-03-06T00:18:52.844Z,15.07
2019-03-06T00:21:24.714Z,17.27
2019-03-06T00:23:56.345Z,12.57
2019-03-06T00:26:28.178Z,9.57
2019-03-06T00:29:00.385Z,8.03
2019-03-06T00:31:32.067Z,14.10
2019-03-06T00:34:03.838Z,12.77
2019-03-06T00:36:36.507Z,13.30
2019-03-06T00:39:09.038Z,16.43
2019-03-06T00:41:49.680Z,11.87
2019-03-06T00:44:23.142Z,12.00
2019-03-06T00:46:56.272Z,11.47
2019-03-06T00:49:27.914Z,15.83
2019-03-06T00:52:00.490Z,11.70
2019-03-06T00:54:42.657Z,13.07
2019-03-06T00:57:14.411Z,10.80
2019-03-06T00:59:46.160Z,11.47
2019-03-06T01:02:17.945Z,12.70
2019-03-06T01:04:49.641Z,11.03
2019-03-06T01:07:21.591Z,8.57
2019-03-06T01:09:53.437Z,14.40
2019-03-06T01:12:25.308Z,16.90
2019-03-06T01:14:57.385Z,12.60
2019-03-06T01:17:29.297Z,18.67
2019-03-06T01:20:01.043Z,15.90
2019-03-06T01:22:32.899Z,18.40
2019-03-06T01:25:05.061Z,13.63
2019-03-06T01:27:36.675Z,16.40
2019-03-06T01:30:09.261Z,12.57
2019-03-06T01:32:41.082Z,17.03
2019-03-06T01:35:33.702Z,17.63
2019-03-06T01:38:19.307Z,12.93
2019-03-06T01:41:08.533Z,18.73
2019-03-06T01:44:07.523Z,17.17
2019-03-06T01:46:39.262Z,17.07
2019-03-06T01:49:11.300Z,17.17
2019-03-06T01:51:43.050Z,13.10
2019-03-06T01:54:14.785Z,13.47
2019-03-06T01:56:46.881Z,23.43
2019-03-06T01:59:18.764Z,19.50
2019-03-06T02:01:50.674Z,16.00
2019-03-06T02:04:22.352Z,18.53
2019-03-06T02:06:54.153Z,8.20
2019-03-06T02:09:27.794Z,18.37
2019-03-06T02:11:59.657Z,20.53
2019-03-06T02:14:31.289Z,15.67
2019-03-06T02:17:03.170Z,20.27
2019-03-06T02:19:35.011Z,18.93
2019-03-06T02:22:07.069Z,21.53
2019-03-06T02:24:40.984Z,18.80
2019-03-06T02:27:12.437Z,20.60
2019-03-06T02:29:49.906Z,16.23
2019-03-06T02:32:21.676Z,21.23
2019-03-06T02:34:53.572Z,15.97
2019-03-06T02:37:25.287Z,17.90
2019-03-06T02:39:57.204Z,21.33
2019-03-06T02:42:29.316Z,19.27
2019-03-06T02:45:00.955Z,23.10
2019-03-06T02:47:32.733Z,17.60
2019-03-06T02:50:04.744Z,21.37
2019-03-06T02:52:36.350Z,15.57
2019-03-06T02:55:08.218Z,18.93
2019-03-06T02:57:43.879Z,21.20
2019-03-06T03:00:51.050Z,22.57
2019-03-06T03:03:58.673Z,24.60
2019-03-06T03:06:38.852Z,19.47
2019-03-06T03:09:16.493Z,18.07
2019-03-06T03:11:48.193Z,19.27
2019-03-06T03:14:19.925Z,21.60
2019-03-06T03:16:53.073Z,22.60
2019-03-06T03:19:24.671Z,18.63
2019-03-06T03:21:56.407Z,24.50
2019-03-06T03:24:28.047Z,22.93
2019-03-06T03:26:59.827Z,21.43
2019-03-06T03:29:31.569Z,10.13
2019-03-06T03:32:03.344Z,11.53
2019-03-06T03:34:35.431Z,4.97
2019-03-06T03:37:07.332Z,5.13
2019-03-06T03:39:38.997Z,2.20
2019-03-06T03:42:11.321Z,2.30
2019-03-06T03:44:43.095Z,3.10
2019-03-06T03:47:15.221Z,2.57
2019-03-06T03:49:46.823Z,1.87
2019-03-06T03:52:18.802Z,3.37
2019-03-06T03:54:50.939Z,2.60
2019-03-06T03:57:23.979Z,1.63
2019-03-06T03:59:56.196Z,1.90
2019-03-06T04:02:27.761Z,3.87
2019-03-06T04:04:59.676Z,1.80
2019-03-06T04:07:40.936Z,2.83
2019-03-06T04:10:13.837Z,1.57
2019-03-06T04:12:45.677Z,1.40
2019-03-06T04:15:18.310Z,3.80
2019-03-06T04:17:50.825Z,1.80
2019-03-06T04:20:22.675Z,2.30
2019-03-06T04:22:54.506Z,3.53
2019-03-06T04:25:26.397Z,4.37
2019-03-06T04:27:58.043Z,3.60
2019-03-06T04:30:29.700Z,1.67
2019-03-06T04:33:01.524Z,2.23
2019-03-06T04:35:33.346Z,2.00
2019-03-06T04:38:05.255Z,1.97
2019-03-06T04:40:36.936Z,3.00
2019-03-06T04:43:09.947Z,2.93
2019-03-06T04:45:41.879Z,2.53
2019-03-06T04:48:14.028Z,2.10
2019-03-06T04:50:45.903Z,4.07
2019-03-06T04:53:17.651Z,1.97
2019-03-06T04:55:49.310Z,3.10
2019-03-06T04:58:21.050Z,5.23
2019-03-06T05:00:52.930Z,4.27
2019-03-06T05:03:24.644Z,2.63
2019-03-06T05:05:57.274Z,3.27
2019-03-06T05:08:28.954Z,4.13
2019-03-06T05:11:00.972Z,3.20
2019-03-06T05:13:32.678Z,8.50
2019-03-06T05:16:04.731Z,3.70
2019-03-06T05:18:41.654Z,5.37
2019-03-06T05:21:13.773Z,8.67
2019-03-06T05:23:45.570Z,6.73
2019-03-06T05:26:18.690Z,9.60
2019-03-06T05:28:50.373Z,10.07
2019-03-06T05:31:22.040Z,5.73
2019-03-06T05:33:55.115Z,5.37
2019-03-06T05:37:24.001Z,6.60
2019-03-06T05:39:56.342Z,8.37
2019-03-06T05:42:28.331Z,9.53
2019-03-06T05:45:00.986Z,9.80
2019-03-06T05:47:34.873Z,11.90
2019-03-06T05:50:09.026Z,9.40
2019-03-06T05:52:40.758Z,12.07
2019-03-06T05:55:12.605Z,19.20
2019-03-06T05:57:44.278Z,9.27
2019-03-06T06:00:16.494Z,19.97
2019-03-06T06:02:48.550Z,10.07
2019-03-06T06:05:20.564Z,9.93
2019-03-06T06:07:54.074Z,12.20
2019-03-06T06:10:26.035Z,7.17
2019-03-06T06:12:58.165Z,11.90
2019-03-06T06:15:30.175Z,6.97
2019-03-06T06:18:02.394Z,8.57
2019-03-06T06:20:34.348Z,14.30
2019-03-06T06:23:16.682Z,14.80
2019-03-06T06:25:48.963Z,10.60
2019-03-06T06:28:21.330Z,15.83
2019-03-06T06:30:53.132Z,18.07
2019-03-06T06:33:24.990Z,18.87
2019-03-06T06:36:01.469Z,10.57
2019-03-06T06:38:33.719Z,15.77
2019-03-06T06:41:06.288Z,12.37
2019-03-06T06:43:40.808Z,16.43
2019-03-06T06:46:15.627Z,14.53
2019-03-06T06:48:47.298Z,16.23
2019-03-06T06:51:58.745Z,11.33
2019-03-06T06:54:39.265Z,14.07
2019-03-06T06:57:25.921Z,18.03
2019-03-06T07:00:51.097Z,17.17
2019-03-06T07:04:05.437Z,16.07
2019-03-06T07:07:01.512Z,16.77
2019-03-06T07:09:57.928Z,14.37
2019-03-06T07:12:57.240Z,16.30
2019-03-06T07:15:47.157Z,14.13
2019-03-06T07:18:34.302Z,15.20
2019-03-06T07:21:26.139Z,15.53
2019-03-06T07:24:23.221Z,12.93
2019-03-06T07:27:14.535Z,22.10
2019-03-06T07:30:10.578Z,11.93
2019-03-06T07:33:02.544Z,11.97
2019-03-06T07:36:09.511Z,11.80
2019-03-06T07:38:41.740Z,14.63
2019-03-06T07:41:40.554Z,20.80
2019-03-06T07:44:48.962Z,15.20
2019-03-06T07:47:37.632Z,13.50
2019-03-06T07:50:42.896Z,11.53
2019-03-06T07:53:56.212Z,16.17
2019-03-06T07:56:35.834Z,16.20
2019-03-06T07:59:07.976Z,14.23
2019-03-06T08:01:47.180Z,12.47
2019-03-06T08:04:19.915Z,12.80
2019-03-06T08:07:00.605Z,11.30
2019-03-06T08:09:32.880Z,18.63
2019-03-06T08:12:35.068Z,13.30
2019-03-06T08:15:42.010Z,13.80
2019-03-06T08:18:23.832Z,20.70
2019-03-06T08:21:17.078Z,19.40
2019-03-06T08:24:19.984Z,12.00
2019-03-06T08:26:51.941Z,17.03
2019-03-06T08:29:23.845Z,22.17
2019-03-06T08:32:02.301Z,18.63
2019-03-06T08:34:34.343Z,19.47
2019-03-06T08:37:06.423Z,20.63
2019-03-06T08:39:40.427Z,24.63
2019-03-06T08:42:12.352Z,29.67
2019-03-06T08:44:45.758Z,31.17
2019-03-06T08:47:36.761Z,25.53
2019-03-06T08:50:29.829Z,33.33
2019-03-06T08:53:34.374Z,28.20
2019-03-06T08:56:33.182Z,29.70
2019-03-06T08:59:27.575Z,30.80
2019-03-06T09:02:19.254Z,34.30
2019-03-06T09:05:06.393Z,32.23
2019-03-06T09:08:02.357Z,31.67
2019-03-06T09:11:02.918Z,32.47
2019-03-06T09:14:01.021Z,31.10
2019-03-06T09:16:55.888Z,32.83
2019-03-06T09:20:03.545Z,33.70
2019-03-06T09:22:49.132Z,29.33
2019-03-06T09:25:48.495Z,32.53
2019-03-06T09:28:34.394Z,30.73
2019-03-06T09:31:31.806Z,34.73
2019-03-06T09:34:16.665Z,33.23
2019-03-06T09:37:11.910Z,34.40
2019-03-06T09:40:07.028Z,33.87
2019-03-06T09:42:50.151Z,42.60
2019-03-06T09:45:28.143Z,32.93
2019-03-06T09:48:21.772Z,40.17
2019-03-06T09:51:01.080Z,35.23
2019-03-06T09:53:41.008Z,37.20
2019-03-06T09:56:21.459Z,40.10
2019-03-06T09:59:26.299Z,36.30
2019-03-06T10:02:08.690Z,37.50
2019-03-06T10:04:57.919Z,33.33
2019-03-06T10:07:41.526Z,32.40
2019-03-06T10:10:26.111Z,38.93
2019-03-06T10:13:08.302Z,40.17
2019-03-06T10:16:03.799Z,37.70
2019-03-06T10:18:46.394Z,34.07
2019-03-06T10:21:18.707Z,34.17
2019-03-06T10:23:52.651Z,36.03
2019-03-06T10:26:25.811Z,34.53
2019-03-06T10:28:57.703Z,43.30
2019-03-06T10:31:29.449Z,43.20
2019-03-06T10:34:01.336Z,52.03
2019-03-06T10:36:33.911Z,38.83
2019-03-06T10:39:06.823Z,37.93
2019-03-06T10:41:39.374Z,37.43
2019-03-06T10:44:12.545Z,34.03
2019-03-06T10:46:44.011Z,31.23
2019-03-06T10:49:17.163Z,32.50
2019-03-06T10:51:49.177Z,28.40
2019-03-06T10:54:21.290Z,34.77
2019-03-06T10:56:53.127Z,30.13
2019-03-06T10:59:25.216Z,33.03
2019-03-06T11:01:57.439Z,32.73
2019-03-06T11:04:51.926Z,30.90
2019-03-06T11:07:24.713Z,34.60
2019-03-06T11:09:57.685Z,31.37
2019-03-06T11:12:30.064Z,29.63
2019-03-06T11:15:01.996Z,29.27
2019-03-06T11:17:33.913Z,30.73
2019-03-06T11:20:06.331Z,30.97
2019-03-06T11:22:38.199Z,32.60
2019-03-06T11:25:13.278Z,30.10
2019-03-06T11:27:46.827Z,34.70
2019-03-06T11:30:47.860Z,33.37
2019-03-06T11:33:20.082Z,31.57
2019-03-06T11:35:52.459Z,30.20
2019-03-06T11:38:24.351Z,31.60
2019-03-06T11:40:56.657Z,27.63
2019-03-06T11:43:29.827Z,30.53
2019-03-06T11:46:02.071Z,29.83
2019-03-06T11:48:34.127Z,30.63
2019-03-06T11:51:05.678Z,27.20
2019-03-06T11:53:37.135Z,22.43
2019-03-06T11:56:09.240Z,22.23
2019-03-06T11:58:40.644Z,21.67
2019-03-06T12:01:16.430Z,23.77
2019-03-06T12:03:47.895Z,20.20
2019-03-06T12:06:19.766Z,20.67
2019-03-06T12:08:51.311Z,20.83
2019-03-06T12:11:23.559Z,24.17
2019-03-06T12:13:55.549Z,21.47
2019-03-06T12:16:30.728Z,18.47
2019-03-06T12:19:03.677Z,22.87
2019-03-06T12:21:35.486Z,17.30
2019-03-06T12:24:16.216Z,18.50
2019-03-06T12:26:48.428Z,19.67
2019-03-06T12:29:22.337Z,19.97
2019-03-06T12:31:54.175Z,19.83
2019-03-06T12:34:26.091Z,19.77
2019-03-06T12:36:59.968Z,15.97
2019-03-06T12:39:32.382Z,19.77
2019-03-06T12:42:13.787Z,20.47
2019-03-06T12:44:38.019Z,17.23
2019-03-06T12:47:10.980Z,14.27
2019-03-06T12:49:43.418Z,20.90
2019-03-06T12:52:15.277Z,19.97
2019-03-06T12:54:47.491Z,19.93
2019-03-06T12:57:20.271Z,23.37
2019-03-06T12:59:52.069Z,23.50
2019-03-06T13:02:23.867Z,28.67
2019-03-06T13:04:56.065Z,28.13
2019-03-06T13:07:28.252Z,26.43
2019-03-06T13:09:59.600Z,33.43
2019-03-06T13:12:38.225Z,16.20
2019-03-06T13:15:12.874Z,22.77
2019-03-06T13:17:44.883Z,21.30
2019-03-06T13:20:16.507Z,19.50
2019-03-06T13:22:48.123Z,26.13
2019-03-06T13:25:20.637Z,22.13
2019-03-06T13:27:56.380Z,15.13
2019-03-06T13:30:28.929Z,20.10
2019-03-06T13:33:31.234Z,32.57
2019-03-06T13:36:04.842Z,27.23
2019-03-06T13:38:36.344Z,16.50
2019-03-06T13:41:08.614Z,27.53
2019-03-06T13:43:40.711Z,21.23
2019-03-06T13:46:13.094Z,25.40
2019-03-06T13:48:44.569Z,18.20
2019-03-06T13:51:16.315Z,19.33
2019-03-06T13:53:48.370Z,22.57
2019-03-06T13:56:20.524Z,23.17
2019-03-06T13:58:52.236Z,21.27
2019-03-06T14:01:25.024Z,24.30
2019-03-06T14:03:58.131Z,25.53
2019-03-06T14:06:29.951Z,17.23
2019-03-06T14:09:01.823Z,25.40
2019-03-06T14:11:34.329Z,16.93
2019-03-06T14:14:06.468Z,17.23
2019-03-06T14:16:38.525Z,14.93
2019-03-06T14:19:11.704Z,11.37
2019-03-06T14:21:43.863Z,28.53
2019-03-06T14:24:15.649Z,18.57
2019-03-06T14:26:47.002Z,18.53
2019-03-06T14:29:18.422Z,30.87
2019-03-06T14:31:50.664Z,42.60
2019-03-06T14:34:22.766Z,22.73
2019-03-06T14:36:55.660Z,19.17
2019-03-06T14:39:32.590Z,29.03
2019-03-06T14:42:06.037Z,18.30
2019-03-06T14:44:38.359Z,22.27
2019-03-06T14:47:10.361Z,55.77
2019-03-06T14:49:42.378Z,26.60
2019-03-06T14:52:14.395Z,11.47
2019-03-06T14:54:46.852Z,15.37
2019-03-06T14:57:18.648Z,29.20
2019-03-06T14:59:50.398Z,17.07
2019-03-06T15:02:22.547Z,17.20
2019-03-06T15:04:54.592Z,22.07
2019-03-06T15:07:26.210Z,32.37
2019-03-06T15:09:59.218Z,31.23
2019-03-06T15:12:32.496Z,25.70
2019-03-06T15:15:05.515Z,20.53
2019-03-06T15:17:37.892Z,28.00
2019-03-06T15:20:11.580Z,36.90
2019-03-06T15:22:44.858Z,31.13
2019-03-06T15:25:19.546Z,28.93
2019-03-06T15:27:51.770Z,26.13
2019-03-06T15:30:24.270Z,23.17
2019-03-06T15:32:56.451Z,24.53
2019-03-06T15:35:27.866Z,43.00
2019-03-06T15:38:02.142Z,38.00
2019-03-06T15:40:34.450Z,41.20
2019-03-06T15:43:07.940Z,39.67
2019-03-06T15:45:42.024Z,15.83
2019-03-06T15:48:13.882Z,25.00
2019-03-06T15:50:45.824Z,25.87
2019-03-06T15:53:24.625Z,16.27
2019-03-06T15:55:52.454Z,13.83
2019-03-06T15:58:24.303Z,22.07
2019-03-06T16:00:56.405Z,13.33
2019-03-06T16:03:28.638Z,16.50
2019-03-06T16:06:00.744Z,18.43
2019-03-06T16:08:32.786Z,15.67
2019-03-06T16:11:05.312Z,15.23
2019-03-06T16:13:37.214Z,14.77
2019-03-06T16:16:10.334Z,13.07
2019-03-06T16:18:43.118Z,15.70
2019-03-06T16:21:15.160Z,18.37
2019-03-06T16:23:47.448Z,22.10
2019-03-06T16:26:19.331Z,20.57
2019-03-06T16:28:51.244Z,19.80
2019-03-06T16:31:23.732Z,26.70
2019-03-06T16:33:56.001Z,31.37
2019-03-06T16:36:27.786Z,26.50
2019-03-06T16:38:59.721Z,18.13
2019-03-06T16:41:31.653Z,17.80
2019-03-06T16:44:03.688Z,15.23
2019-03-06T16:46:35.912Z,21.67
2019-03-06T16:49:07.934Z,20.33
2019-03-06T16:51:41.608Z,24.90
2019-03-06T16:54:15.798Z,18.53
2019-03-06T16:56:50.069Z,20.07
2019-03-06T16:59:23.064Z,22.20
2019-03-06T17:01:56.278Z,25.57
2019-03-06T17:04:27.934Z,23.07
2019-03-06T17:07:00.204Z,18.73
2019-03-06T17:09:35.295Z,30.27
2019-03-06T17:12:07.783Z,32.83
2019-03-06T17:14:39.256Z,32.37
2019-03-06T17:17:12.522Z,33.53
2019-03-06T17:19:44.545Z,36.23
2019-03-06T17:22:19.008Z,35.73
2019-03-06T17:24:50.939Z,34.40
2019-03-06T17:27:22.719Z,37.77
2019-03-06T17:29:54.919Z,38.67
2019-03-06T17:32:26.744Z,38.03
2019-03-06T17:35:00.020Z,33.93
2019-03-06T17:37:33.888Z,43.53
2019-03-06T17:40:06.046Z,47.37
2019-03-06T17:42:37.873Z,40.00
2019-03-06T17:45:09.925Z,39.97
2019-03-06T17:47:42.344Z,39.13
2019-03-06T17:50:14.526Z,42.97
2019-03-06T17:52:48.161Z,41.93
2019-03-06T17:55:19.941Z,53.50
2019-03-06T17:57:51.712Z,44.10
2019-03-06T18:00:42.623Z,40.97
2019-03-06T18:03:17.692Z,46.70
2019-03-06T18:05:51.763Z,41.27
2019-03-06T18:08:28.340Z,44.63
2019-03-06T18:11:00.608Z,50.30
2019-03-06T18:13:32.693Z,46.63
2019-03-06T18:16:04.491Z,49.23
2019-03-06T18:18:36.790Z,48.50
2019-03-06T18:21:08.963Z,47.47
2019-03-06T18:23:41.298Z,43.80
2019-03-06T18:26:13.886Z,43.77
2019-03-06T18:28:45.840Z,49.47
2019-03-06T18:31:17.841Z,34.03
2019-03-06T18:33:50.086Z,45.83
2019-03-06T18:36:22.034Z,45.77
2019-03-06T18:38:54.000Z,50.33
2019-03-06T18:41:25.902Z,50.23
2019-03-06T18:43:58.030Z,50.17
2019-03-06T18:46:30.059Z,53.37
2019-03-06T18:49:02.182Z,58.33
2019-03-06T18:51:33.976Z,46.70
2019-03-06T18:54:05.828Z,48.73
2019-03-06T18:56:37.800Z,40.67
2019-03-06T18:59:09.998Z,50.90
2019-03-06T19:01:44.125Z,51.50
2019-03-06T19:04:15.955Z,62.93
2019-03-06T19:06:47.822Z,57.73
2019-03-06T19:09:19.918Z,55.83
2019-03-06T19:11:51.918Z,61.47
2019-03-06T19:14:27.053Z,53.07
2019-03-06T19:16:58.870Z,56.03
2019-03-06T19:19:30.757Z,53.70
2019-03-06T19:22:04.146Z,49.27
2019-03-06T19:24:35.918Z,50.80
2019-03-06T19:27:07.717Z,47.50
2019-03-06T19:29:40.014Z,54.90
2019-03-06T19:32:11.679Z,48.30
2019-03-06T19:34:43.769Z,51.40
2019-03-06T19:37:16.279Z,50.20
2019-03-06T19:39:48.468Z,57.23
2019-03-06T19:42:20.276Z,57.73
2019-03-06T19:44:53.098Z,53.70
2019-03-06T19:47:25.294Z,55.30
2019-03-06T19:49:57.448Z,50.83
2019-03-06T19:52:29.677Z,53.57
2019-03-06T19:55:01.435Z,55.83
2019-03-06T19:57:47.989Z,52.13
2019-03-06T20:00:21.813Z,53.80
2019-03-06T20:02:53.853Z,50.17
2019-03-06T20:05:26.504Z,43.87
2019-03-06T20:07:58.606Z,57.50
2019-03-06T20:10:30.333Z,53.50
2019-03-06T20:13:02.137Z,50.90
2019-03-06T20:15:33.906Z,53.07
2019-03-06T20:18:05.684Z,59.33
2019-03-06T20:20:41.035Z,51.10
2019-03-06T20:23:15.692Z,48.03
2019-03-06T20:25:47.361Z,44.10
2019-03-06T20:28:21.015Z,48.13
2019-03-06T20:30:52.773Z,55.17
2019-03-06T20:33:24.935Z,47.00
2019-03-06T20:35:56.686Z,53.50
2019-03-06T20:38:28.511Z,48.07
2019-03-06T20:41:00.551Z,52.23
2019-03-06T20:43:35.130Z,51.67
2019-03-06T20:46:07.533Z,58.13
2019-03-06T20:48:39.475Z,48.10
2019-03-06T20:51:14.124Z,50.60
2019-03-06T20:53:45.929Z,41.60
2019-03-06T20:56:18.026Z,45.23
2019-03-06T20:58:52.654Z,48.67
2019-03-06T21:01:24.403Z,51.43
2019-03-06T21:03:56.182Z,48.53
2019-03-06T21:06:33.591Z,52.40
2019-03-06T21:09:01.228Z,50.40
2019-03-06T21:11:32.962Z,50.00
2019-03-06T21:14:05.350Z,50.90
2019-03-06T21:16:37.233Z,43.90
2019-03-06T21:19:09.956Z,52.77
2019-03-06T21:21:42.024Z,50.20
2019-03-06T21:24:14.417Z,52.30
2019-03-06T21:26:46.691Z,51.50
2019-03-06T21:29:18.612Z,45.07
2019-03-06T21:31:51.713Z,48.03
2019-03-06T21:34:26.546Z,51.43
2019-03-06T21:37:02.901Z,48.90
2019-03-06T21:39:35.179Z,52.53
2019-03-06T21:42:07.425Z,44.87
2019-03-06T21:44:39.516Z,46.80
2019-03-06T21:47:11.221Z,43.90
2019-03-06T21:49:44.219Z,47.73
2019-03-06T21:52:15.768Z,47.27
2019-03-06T21:54:47.596Z,48.80
2019-03-06T21:57:19.449Z,48.53
2019-03-06T21:59:51.590Z,52.57
2019-03-06T22:02:29.062Z,51.83
2019-03-06T22:05:01.385Z,42.13
2019-03-06T22:07:33.476Z,46.53
2019-03-06T22:10:05.377Z,46.37
2019-03-06T22:12:37.006Z,50.13
2019-03-06T22:15:09.586Z,47.30
2019-03-06T22:17:41.352Z,51.27
2019-03-06T22:20:13.221Z,47.33
2019-03-06T22:22:46.308Z,46.80
2019-03-06T22:25:19.059Z,43.83
2019-03-06T22:27:51.976Z,42.80
2019-03-06T22:30:23.883Z,42.47
2019-03-06T22:32:59.633Z,45.73
2019-03-06T22:35:31.532Z,42.40
2019-03-06T22:38:06.532Z,42.70
2019-03-06T22:40:38.752Z,42.43
2019-03-06T22:43:11.965Z,42.50
2019-03-06T22:45:45.094Z,42.33
2019-03-06T22:48:20.537Z,42.90
2019-03-06T22:50:52.268Z,46.47
2019-03-06T22:53:24.080Z,40.33
2019-03-06T22:55:55.826Z,44.90
2019-03-06T22:58:29.624Z,24.63
2019-03-06T23:01:28.853Z,31.77
2019-03-06T23:04:00.918Z,36.30
2019-03-06T23:06:34.063Z,37.07
2019-03-06T23:09:09.120Z,38.97
2019-03-06T23:11:40.671Z,37.37
2019-03-06T23:14:12.503Z,33.17
2019-03-06T23:16:44.385Z,36.07
2019-03-06T23:19:18.005Z,38.80
2019-03-06T23:21:49.970Z,39.03
2019-03-06T23:24:21.784Z,34.13
2019-03-06T23:26:53.892Z,30.30
2019-03-06T23:29:25.964Z,36.30
2019-03-06T23:31:58.040Z,41.37
2019-03-06T23:34:29.809Z,30.27
2019-03-06T23:37:01.331Z,36.20
2019-03-06T23:39:33.343Z,21.13
2019-03-06T23:42:05.671Z,41.77
2019-03-06T23:44:37.583Z,39.43
2019-03-06T23:47:09.582Z,41.73
2019-03-06T23:49:41.352Z,36.23
2019-03-06T23:52:28.980Z,37.27
2019-03-06T23:55:00.838Z,36.20
2019-03-06T23:57:32.861Z,38.20
